Time;durP1;ratioP1;P1;durP2;ratioP2;P2;SDS_P1;SDS_P2;PMS_P1;PMS_P2;Temp;Humidity;BMP_temperature;BMP_pressure;BME280_temperature;BME280_humidity;BME280_pressure;Samples;Min_cycle;Max_cycle;Signal;HPM_P1;HPM_P2
2023/08/06 00:01:12;;;;;;;7.05;3.80;;;;;;;;;;4994297;28;20029;-68
2023/08/06 00:03:37;;;;;;;8.85;3.50;;;;;;;;;;4994646;28;20034;-68
2023/08/06 00:06:04;;;;;;;7.85;3.95;;;;;;;;;;4994609;28;20464;-68
2023/08/06 00:08:30;;;;;;;7.68;3.90;;;;;;;;;;4994425;28;20117;-69
2023/08/06 00:10:55;;;;;;;9.20;3.85;;;;;;;;;;4991849;28;20093;-70
2023/08/06 00:13:21;;;;;;;8.30;4.15;;;;;;;;;;4994331;28;20048;-67
2023/08/06 00:15:46;;;;;;;7.45;4.13;;;;;;;;;;4994145;28;20026;-69
2023/08/06 00:18:12;;;;;;;8.65;4.22;;;;;;;;;;4994175;28;20030;-68
2023/08/06 00:20:41;;;;;;;7.75;4.45;;;;;;;;;;4994239;28;20030;-69
2023/08/06 00:23:07;;;;;;;9.30;4.95;;;;;;;;;;4994279;28;20034;-70
2023/08/06 00:25:32;;;;;;;7.72;4.25;;;;;;;;;;4994031;28;20026;-67
2023/08/06 00:27:58;;;;;;;11.00;4.60;;;;;;;;;;4994101;28;20627;-70
2023/08/06 00:30:23;;;;;;;8.10;5.20;;;;;;;;;;4993813;28;20045;-70
2023/08/06 00:32:49;;;;;;;10.40;5.90;;;;;;;;;;4994028;28;20475;-69
2023/08/06 00:35:14;;;;;;;10.73;5.43;;;;;;;;;;4994146;28;20030;-68
2023/08/06 00:37:40;;;;;;;8.05;5.43;;;;;;;;;;4993745;28;20527;-70
2023/08/06 00:40:07;;;;;;;10.45;5.22;;;;;;;;;;4992816;28;20030;-69
2023/08/06 00:42:34;;;;;;;8.55;5.05;;;;;;;;;;4993699;28;20034;-69
2023/08/06 00:45:00;;;;;;;10.20;5.38;;;;;;;;;;4992456;28;20324;-68
2023/08/06 00:47:26;;;;;;;7.10;4.88;;;;;;;;;;4993587;28;20033;-69
2023/08/06 00:49:51;;;;;;;10.65;5.78;;;;;;;;;;4993489;28;20038;-70
2023/08/06 00:52:17;;;;;;;10.27;5.90;;;;;;;;;;4991283;28;20043;-70
2023/08/06 00:54:42;;;;;;;9.55;5.47;;;;;;;;;;4993558;28;20026;-70
2023/08/06 00:57:09;;;;;;;9.10;5.90;;;;;;;;;;4993645;28;20033;-69
2023/08/06 00:59:35;;;;;;;10.52;6.70;;;;;;;;;;4993299;28;20081;-69
2023/08/06 01:02:00;;;;;;;11.68;6.53;;;;;;;;;;4993365;28;20022;-70
2023/08/06 01:04:26;;;;;;;10.40;6.30;;;;;;;;;;4993691;28;20502;-70
2023/08/06 01:06:51;;;;;;;11.50;7.03;;;;;;;;;;4994649;28;20026;-70
2023/08/06 01:09:47;;;;;;;10.52;6.50;;;;;;;;;;4994747;28;20026;-70
2023/08/06 01:12:32;;;;;;;13.25;6.70;;;;;;;;;;4994508;28;20561;-68
2023/08/06 01:15:16;;;;;;;11.30;6.60;;;;;;;;;;4994667;28;20030;-70
2023/08/06 01:17:42;;;;;;;10.68;7.00;;;;;;;;;;4994764;28;20026;-69
2023/08/06 01:20:08;;;;;;;13.57;6.90;;;;;;;;;;4993091;28;20161;-69
2023/08/06 01:22:33;;;;;;;13.20;6.72;;;;;;;;;;4994561;28;20018;-70
2023/08/06 01:24:59;;;;;;;10.98;7.20;;;;;;;;;;4994500;28;20507;-68
2023/08/06 01:27:28;;;;;;;10.00;6.68;;;;;;;;;;4994120;28;20423;-71
2023/08/06 01:30:04;;;;;;;14.48;7.63;;;;;;;;;;4994448;28;20065;-71
2023/08/06 01:32:34;;;;;;;12.93;7.80;;;;;;;;;;4994432;28;20081;-71
2023/08/06 01:35:01;;;;;;;12.50;7.10;;;;;;;;;;4994355;28;20030;-68
2023/08/06 01:37:27;;;;;;;10.40;7.18;;;;;;;;;;4994038;28;20360;-69
2023/08/06 01:39:53;;;;;;;14.15;7.53;;;;;;;;;;4994173;28;20022;-70
2023/08/06 01:42:18;;;;;;;11.75;7.50;;;;;;;;;;4993835;28;20030;-68
2023/08/06 01:44:44;;;;;;;11.52;7.40;;;;;;;;;;4994168;28;20329;-67
2023/08/06 01:47:09;;;;;;;14.18;8.38;;;;;;;;;;4993964;28;20053;-70
2023/08/06 01:49:34;;;;;;;13.63;8.50;;;;;;;;;;4993981;28;20494;-67
2023/08/06 01:52:00;;;;;;;13.27;8.55;;;;;;;;;;4991467;28;20049;-69
2023/08/06 01:54:27;;;;;;;12.35;8.00;;;;;;;;;;4993345;28;20065;-66
2023/08/06 01:56:53;;;;;;;13.93;8.57;;;;;;;;;;4992844;28;20379;-66
2023/08/06 01:59:18;;;;;;;11.60;8.32;;;;;;;;;;4993186;28;20034;-65
2023/08/06 02:01:43;;;;;;;12.38;8.63;;;;;;;;;;4993196;28;20019;-65
2023/08/06 02:04:09;;;;;;;10.68;7.88;;;;;;;;;;4992865;28;20151;-66
2023/08/06 02:06:34;;;;;;;12.90;8.48;;;;;;;;;;4993070;28;20456;-66
2023/08/06 02:09:00;;;;;;;10.70;8.10;;;;;;;;;;4992901;28;20036;-67
2023/08/06 02:11:25;;;;;;;12.55;8.32;;;;;;;;;;4992708;28;20030;-65
2023/08/06 02:13:50;;;;;;;14.68;8.45;;;;;;;;;;4993020;28;20026;-65
2023/08/06 02:16:16;;;;;;;11.10;8.07;;;;;;;;;;4992750;28;20412;-65
2023/08/06 02:18:41;;;;;;;11.82;8.65;;;;;;;;;;4992717;28;20464;-65
2023/08/06 02:21:07;;;;;;;13.88;9.00;;;;;;;;;;4992920;28;20054;-65
2023/08/06 02:23:32;;;;;;;13.25;8.38;;;;;;;;;;4992800;28;20476;-65
2023/08/06 02:25:59;;;;;;;12.32;8.50;;;;;;;;;;4992540;28;20113;-65
2023/08/06 02:28:25;;;;;;;11.35;8.85;;;;;;;;;;4992493;28;20027;-65
2023/08/06 02:30:51;;;;;;;11.95;9.20;;;;;;;;;;4992689;28;20026;-64
2023/08/06 02:33:16;;;;;;;12.88;9.43;;;;;;;;;;4992681;28;20026;-67
2023/08/06 02:35:42;;;;;;;11.77;8.43;;;;;;;;;;4992654;28;20045;-65
2023/08/06 02:38:07;;;;;;;12.50;8.80;;;;;;;;;;4992341;28;20022;-64
2023/08/06 02:40:32;;;;;;;12.02;8.75;;;;;;;;;;4992295;28;20388;-65
2023/08/06 02:42:58;;;;;;;11.57;8.77;;;;;;;;;;4992493;28;20034;-65
2023/08/06 02:45:23;;;;;;;12.10;9.40;;;;;;;;;;4992554;28;20023;-65
2023/08/06 02:47:49;;;;;;;11.98;8.70;;;;;;;;;;4992493;28;20033;-65
2023/08/06 02:50:14;;;;;;;12.50;9.15;;;;;;;;;;4951408;28;1186685;-65
2023/08/06 02:52:40;;;;;;;13.95;9.10;;;;;;;;;;4976388;28;20086;-65
2023/08/06 02:55:07;;;;;;;12.93;9.18;;;;;;;;;;4973676;28;20047;-65
2023/08/06 02:57:32;;;;;;;11.60;8.68;;;;;;;;;;4973852;28;20027;-65
2023/08/06 02:59:57;;;;;;;13.55;9.48;;;;;;;;;;4973790;28;20038;-65
2023/08/06 03:02:23;;;;;;;11.02;8.23;;;;;;;;;;4976896;28;20022;-65
2023/08/06 03:04:48;;;;;;;9.43;7.07;;;;;;;;;;4988478;28;20069;-65
2023/08/06 03:07:14;;;;;;;9.15;7.70;;;;;;;;;;4977600;28;20059;-65
2023/08/06 03:09:39;;;;;;;9.63;7.88;;;;;;;;;;4977319;28;20113;-65
2023/08/06 03:12:05;;;;;;;8.30;7.13;;;;;;;;;;4977587;28;20029;-65
2023/08/06 03:14:31;;;;;;;9.68;7.18;;;;;;;;;;4977487;28;20022;-65
2023/08/06 03:16:56;;;;;;;8.25;6.85;;;;;;;;;;4977510;28;20031;-65
2023/08/06 03:19:21;;;;;;;11.43;7.72;;;;;;;;;;4977485;28;20030;-66
2023/08/06 03:21:47;;;;;;;8.18;6.97;;;;;;;;;;4977391;28;20026;-65
2023/08/06 03:24:13;;;;;;;7.75;6.43;;;;;;;;;;4977244;28;20023;-65
2023/08/06 03:26:39;;;;;;;7.82;6.38;;;;;;;;;;4977266;28;20490;-65
2023/08/06 03:29:04;;;;;;;13.02;6.90;;;;;;;;;;4977100;28;20035;-65
2023/08/06 03:31:30;;;;;;;8.85;7.00;;;;;;;;;;4977095;28;20440;-66
2023/08/06 03:33:55;;;;;;;9.00;6.82;;;;;;;;;;4975954;28;20027;-65
2023/08/06 03:36:21;;;;;;;9.32;7.25;;;;;;;;;;4977048;28;20061;-65
2023/08/06 03:38:47;;;;;;;13.25;8.23;;;;;;;;;;4990461;28;20384;-65
2023/08/06 03:41:12;;;;;;;11.25;8.68;;;;;;;;;;4996465;28;20036;-65
2023/08/06 03:43:37;;;;;;;14.13;8.40;;;;;;;;;;4996457;28;20030;-65
2023/08/06 03:46:03;;;;;;;13.93;9.20;;;;;;;;;;4996308;28;20038;-66
2023/08/06 03:48:28;;;;;;;12.77;8.93;;;;;;;;;;4996122;28;20430;-65
2023/08/06 03:50:54;;;;;;;11.57;9.40;;;;;;;;;;4993536;28;20050;-65
2023/08/06 03:53:19;;;;;;;12.23;8.65;;;;;;;;;;4976515;28;20033;-66
2023/08/06 03:55:45;;;;;;;10.73;7.93;;;;;;;;;;4976753;28;20109;-65
2023/08/06 03:58:10;;;;;;;9.80;7.43;;;;;;;;;;4976654;28;20499;-65
2023/08/06 04:00:35;;;;;;;9.95;7.07;;;;;;;;;;4976771;28;20027;-65
2023/08/06 04:03:01;;;;;;;9.95;6.97;;;;;;;;;;4976446;28;20026;-64
2023/08/06 04:05:26;;;;;;;9.68;6.82;;;;;;;;;;4976744;28;20030;-66
2023/08/06 04:07:52;;;;;;;8.20;6.75;;;;;;;;;;4974891;28;20031;-68
2023/08/06 04:10:17;;;;;;;11.10;6.53;;;;;;;;;;4976513;28;20034;-66
2023/08/06 04:12:43;;;;;;;10.30;7.30;;;;;;;;;;4993664;28;20468;-66
2023/08/06 04:15:08;;;;;;;8.90;6.55;;;;;;;;;;4995547;28;20034;-65
2023/08/06 04:17:34;;;;;;;11.10;7.57;;;;;;;;;;4995603;28;20427;-65
2023/08/06 04:19:59;;;;;;;11.10;7.28;;;;;;;;;;4995685;28;20023;-65
2023/08/06 04:22:25;;;;;;;10.65;7.15;;;;;;;;;;4995433;28;20496;-65
2023/08/06 04:24:50;;;;;;;12.13;7.63;;;;;;;;;;4995582;28;20026;-66
2023/08/06 04:27:16;;;;;;;10.60;7.47;;;;;;;;;;4995543;28;20022;-65
2023/08/06 04:29:42;;;;;;;11.32;7.18;;;;;;;;;;4994276;28;20034;-66
2023/08/06 04:32:10;;;;;;;10.35;6.85;;;;;;;;;;4995436;28;20034;-65
2023/08/06 04:34:36;;;;;;;12.30;6.63;;;;;;;;;;4995468;28;20366;-66
2023/08/06 04:37:03;;;;;;;8.13;6.03;;;;;;;;;;4995183;28;20040;-66
2023/08/06 04:39:28;;;;;;;6.43;5.28;;;;;;;;;;4994916;28;20035;-65
2023/08/06 04:41:55;;;;;;;5.80;4.32;;;;;;;;;;4995279;28;20472;-67
2023/08/06 04:44:21;;;;;;;4.40;4.00;;;;;;;;;;4995314;28;20081;-65
2023/08/06 04:46:46;;;;;;;6.10;4.10;;;;;;;;;;4995336;28;20423;-65
2023/08/06 04:49:11;;;;;;;5.45;4.30;;;;;;;;;;4995070;28;20041;-65
2023/08/06 04:51:37;;;;;;;5.85;4.22;;;;;;;;;;4986503;28;20043;-65
2023/08/06 04:54:02;;;;;;;8.93;3.97;;;;;;;;;;4975648;28;20057;-66
2023/08/06 04:56:29;;;;;;;6.35;4.00;;;;;;;;;;4975747;28;20380;-65
2023/08/06 04:58:54;;;;;;;5.55;4.10;;;;;;;;;;4975509;28;20072;-65
2023/08/06 05:01:19;;;;;;;4.80;4.30;;;;;;;;;;4975553;28;20022;-65
2023/08/06 05:03:46;;;;;;;6.28;4.57;;;;;;;;;;4975417;28;20034;-66
2023/08/06 05:06:12;;;;;;;6.82;4.40;;;;;;;;;;4975182;28;20031;-66
2023/08/06 05:08:37;;;;;;;5.47;4.28;;;;;;;;;;4975255;28;20039;-66
2023/08/06 05:11:02;;;;;;;5.65;4.30;;;;;;;;;;4975332;28;20392;-66
2023/08/06 05:13:28;;;;;;;5.78;4.43;;;;;;;;;;4975270;28;20033;-65
2023/08/06 05:15:54;;;;;;;7.20;5.00;;;;;;;;;;4975306;28;20345;-66
2023/08/06 05:18:20;;;;;;;5.68;4.65;;;;;;;;;;4974973;28;20033;-66
2023/08/06 05:20:45;;;;;;;5.95;4.57;;;;;;;;;;4974947;28;20030;-66
2023/08/06 05:23:10;;;;;;;7.03;4.90;;;;;;;;;;4975192;28;20019;-67
2023/08/06 05:25:37;;;;;;;7.45;5.53;;;;;;;;;;4974496;28;20091;-69
2023/08/06 05:28:03;;;;;;;8.88;5.55;;;;;;;;;;4974764;28;20035;-65
2023/08/06 05:30:28;;;;;;;8.23;5.65;;;;;;;;;;4974979;28;20093;-65
2023/08/06 05:32:55;;;;;;;6.72;5.18;;;;;;;;;;4974868;28;20468;-65
2023/08/06 05:35:21;;;;;;;6.22;4.90;;;;;;;;;;4974588;28;20027;-65
2023/08/06 05:37:46;;;;;;;6.03;5.30;;;;;;;;;;4980228;28;20046;-66
2023/08/06 05:40:12;;;;;;;7.10;4.72;;;;;;;;;;4994253;28;20068;-65
2023/08/06 05:42:37;;;;;;;6.32;4.68;;;;;;;;;;4994128;28;20483;-65
2023/08/06 05:45:03;;;;;;;6.20;4.65;;;;;;;;;;4993918;28;20018;-65
2023/08/06 05:47:28;;;;;;;6.00;5.18;;;;;;;;;;4993935;28;20172;-66
2023/08/06 05:49:54;;;;;;;6.63;5.10;;;;;;;;;;4993804;28;20027;-65
2023/08/06 05:52:19;;;;;;;5.90;4.90;;;;;;;;;;4993628;28;20047;-65
2023/08/06 05:54:44;;;;;;;6.78;5.53;;;;;;;;;;4994050;28;20026;-65
2023/08/06 05:57:10;;;;;;;7.63;6.20;;;;;;;;;;4993854;28;20053;-65
2023/08/06 05:59:35;;;;;;;8.70;5.75;;;;;;;;;;4992842;28;20105;-65
2023/08/06 06:02:01;;;;;;;6.80;5.57;;;;;;;;;;4989581;28;20494;-65
2023/08/06 06:04:26;;;;;;;7.65;6.15;;;;;;;;;;4992684;28;20464;-65
2023/08/06 06:06:52;;;;;;;7.10;6.00;;;;;;;;;;4993116;28;20376;-69
2023/08/06 06:09:17;;;;;;;8.93;6.40;;;;;;;;;;4992974;28;20038;-67
2023/08/06 06:11:42;;;;;;;8.75;6.55;;;;;;;;;;4993685;28;20026;-66
2023/08/06 06:14:08;;;;;;;11.00;7.10;;;;;;;;;;4993555;28;20460;-70
2023/08/06 06:16:34;;;;;;;9.52;7.18;;;;;;;;;;4993345;28;20113;-66
2023/08/06 06:18:59;;;;;;;10.98;7.10;;;;;;;;;;4992550;28;20062;-67
2023/08/06 06:21:24;;;;;;;12.57;7.55;;;;;;;;;;5003190;28;20026;-70
2023/08/06 06:23:51;;;;;;;15.18;8.73;;;;;;;;;;4993541;28;20065;-69
2023/08/06 06:26:18;;;;;;;19.65;10.02;;;;;;;;;;4993496;28;20038;-69
2023/08/06 06:28:43;;;;;;;22.17;11.20;;;;;;;;;;4993165;28;20030;-66
2023/08/06 06:31:09;;;;;;;28.00;12.63;;;;;;;;;;4993128;28;20360;-69
2023/08/06 06:33:34;;;;;;;30.38;12.65;;;;;;;;;;4993282;28;20098;-68
2023/08/06 06:36:00;;;;;;;26.45;12.38;;;;;;;;;;4993212;28;20101;-64
2023/08/06 06:38:25;;;;;;;24.65;11.25;;;;;;;;;;4991904;28;20475;-66
2023/08/06 06:40:57;;;;;;;27.25;11.73;;;;;;;;;;4993163;28;20109;-68
2023/08/06 06:43:24;;;;;;;23.70;11.60;;;;;;;;;;4991472;23;20079;-72
2023/08/06 06:45:54;;;;;;;21.70;10.98;;;;;;;;;;4953197;28;20379;-63
2023/08/06 06:48:19;;;;;;;21.67;10.27;;;;;;;;;;4954149;28;20031;-66
2023/08/06 06:50:48;;;;;;;21.10;10.13;;;;;;;;;;4954328;28;20043;-62
2023/08/06 06:53:13;;;;;;;15.27;8.98;;;;;;;;;;4949972;28;20031;-64
2023/08/06 06:55:39;;;;;;;13.10;7.57;;;;;;;;;;4956160;28;20880;-64
2023/08/06 06:58:04;;;;;;;16.10;8.00;;;;;;;;;;4973636;28;20038;-62
2023/08/06 07:00:29;;;;;;;12.50;7.15;;;;;;;;;;4955643;28;20023;-63
2023/08/06 07:02:55;;;;;;;11.90;5.88;;;;;;;;;;4954041;28;20417;-64
2023/08/06 07:05:20;;;;;;;11.18;6.80;;;;;;;;;;4953732;28;20026;-65
2023/08/06 07:07:46;;;;;;;9.77;4.90;;;;;;;;;;4953694;28;20433;-65
2023/08/06 07:10:11;;;;;;;7.95;4.55;;;;;;;;;;4953753;28;20027;-63
2023/08/06 07:12:36;;;;;;;8.38;4.10;;;;;;;;;;4956147;28;20392;-65
2023/08/06 07:15:06;;;;;;;7.97;4.63;;;;;;;;;;4953488;28;20020;-65
2023/08/06 07:17:31;;;;;;;7.78;3.53;;;;;;;;;;4959763;28;20101;-65
2023/08/06 07:19:56;;;;;;;5.53;3.08;;;;;;;;;;4953603;28;20186;-64
2023/08/06 07:22:22;;;;;;;9.48;3.20;;;;;;;;;;4953409;28;20031;-64
2023/08/06 07:24:47;;;;;;;5.57;3.10;;;;;;;;;;4953354;28;20027;-65
2023/08/06 07:27:13;;;;;;;4.90;3.35;;;;;;;;;;4950107;28;20027;-64
2023/08/06 07:29:38;;;;;;;4.90;2.80;;;;;;;;;;4952550;28;20028;-64
2023/08/06 07:32:04;;;;;;;4.45;2.72;;;;;;;;;;4953619;28;20114;-63
2023/08/06 07:34:29;;;;;;;8.50;3.30;;;;;;;;;;4951763;28;20024;-63
2023/08/06 07:36:55;;;;;;;4.03;2.38;;;;;;;;;;4950236;28;20032;-64
2023/08/06 07:39:20;;;;;;;6.50;2.63;;;;;;;;;;4952694;28;20065;-66
2023/08/06 07:41:46;;;;;;;3.55;2.60;;;;;;;;;;4952056;28;20421;-64
2023/08/06 07:44:11;;;;;;;5.72;2.40;;;;;;;;;;4948713;28;20059;-64
2023/08/06 07:46:38;;;;;;;3.92;2.50;;;;;;;;;;4971848;28;20037;-64
2023/08/06 07:49:03;;;;;;;3.30;2.13;;;;;;;;;;4968420;28;20109;-66
2023/08/06 07:51:28;;;;;;;4.57;2.50;;;;;;;;;;4957047;28;20078;-65
2023/08/06 07:53:54;;;;;;;3.75;2.53;;;;;;;;;;4957102;28;20069;-65
2023/08/06 07:56:19;;;;;;;3.42;2.28;;;;;;;;;;4957347;28;20633;-64
2023/08/06 07:58:45;;;;;;;4.20;2.38;;;;;;;;;;4955275;28;20031;-66
2023/08/06 08:01:10;;;;;;;5.90;2.50;;;;;;;;;;4962615;28;20333;-66
2023/08/06 08:03:36;;;;;;;4.88;2.60;;;;;;;;;;4968970;28;20049;-66
2023/08/06 08:06:01;;;;;;;4.10;2.47;;;;;;;;;;4956824;28;20081;-64
2023/08/06 08:08:26;;;;;;;5.65;3.63;;;;;;;;;;4952830;28;20121;-65
2023/08/06 08:10:52;;;;;;;7.95;4.25;;;;;;;;;;4952437;28;20058;-66
2023/08/06 08:13:17;;;;;;;8.20;4.32;;;;;;;;;;4956133;28;20028;-64
2023/08/06 08:15:43;;;;;;;17.77;8.63;;;;;;;;;;4956676;28;20023;-64
2023/08/06 08:18:08;;;;;;;14.85;8.23;;;;;;;;;;4972330;28;20030;-64
2023/08/06 08:20:35;;;;;;;29.13;13.63;;;;;;;;;;4975903;28;20030;-66
2023/08/06 08:23:01;;;;;;;31.05;15.27;;;;;;;;;;4975986;28;20033;-63
2023/08/06 08:25:26;;;;;;;32.20;17.75;;;;;;;;;;4965192;28;20023;-67
2023/08/06 08:27:53;;;;;;;30.95;17.02;;;;;;;;;;4975522;28;20037;-66
2023/08/06 08:30:18;;;;;;;26.83;14.80;;;;;;;;;;4975831;28;20114;-66
2023/08/06 08:32:43;;;;;;;26.67;14.05;;;;;;;;;;4954954;28;20143;-62
2023/08/06 08:35:09;;;;;;;20.80;11.82;;;;;;;;;;4956723;28;20023;-62
2023/08/06 08:37:36;;;;;;;16.27;9.65;;;;;;;;;;4974096;28;20038;-63
2023/08/06 08:40:03;;;;;;;11.05;7.07;;;;;;;;;;4965388;28;20045;-62
2023/08/06 08:42:28;;;;;;;10.48;5.68;;;;;;;;;;4955494;28;20098;-62
2023/08/06 08:44:55;;;;;;;7.88;4.18;;;;;;;;;;4959827;28;20043;-65
2023/08/06 08:47:20;;;;;;;6.53;3.85;;;;;;;;;;4975559;28;20114;-65
2023/08/06 08:49:47;;;;;;;6.20;3.30;;;;;;;;;;4975537;28;20420;-64
2023/08/06 08:52:15;;;;;;;6.30;3.65;;;;;;;;;;4962346;28;20035;-64
2023/08/06 08:54:43;;;;;;;4.20;2.40;;;;;;;;;;4956151;28;20043;-62
2023/08/06 08:57:08;;;;;;;4.75;2.40;;;;;;;;;;4948939;28;20158;-64
2023/08/06 08:59:34;;;;;;;4.68;2.70;;;;;;;;;;4938988;29;20484;-65
2023/08/06 09:02:01;;;;;;;3.95;2.35;;;;;;;;;;4953786;28;20118;-64
2023/08/06 09:04:31;;;;;;;5.68;2.80;;;;;;;;;;4955518;28;20030;-62
2023/08/06 09:06:59;;;;;;;5.03;2.45;;;;;;;;;;4960125;28;20035;-65
2023/08/06 09:09:31;;;;;;;6.50;3.05;;;;;;;;;;4955457;28;20083;-65
2023/08/06 09:12:02;;;;;;;3.97;2.30;;;;;;;;;;4954926;28;20029;-62
2023/08/06 09:14:28;;;;;;;5.18;2.75;;;;;;;;;;4936378;29;20063;-65
2023/08/06 09:16:54;;;;;;;2.97;2.15;;;;;;;;;;4970271;28;20054;-64
2023/08/06 09:19:20;;;;;;;3.88;2.65;;;;;;;;;;4963628;28;20404;-62
2023/08/06 09:21:48;;;;;;;3.17;2.30;;;;;;;;;;4955300;28;20021;-66
2023/08/06 09:24:14;;;;;;;4.53;2.55;;;;;;;;;;4955230;28;20425;-61
2023/08/06 09:26:41;;;;;;;4.85;2.38;;;;;;;;;;4954259;28;20031;-65
2023/08/06 09:29:08;;;;;;;4.65;2.70;;;;;;;;;;4954871;28;20452;-65
2023/08/06 09:31:47;;;;;;;4.63;2.60;;;;;;;;;;4952221;28;20059;-65
2023/08/06 09:34:21;;;;;;;4.80;2.45;;;;;;;;;;4955093;28;20031;-65
2023/08/06 09:36:52;;;;;;;3.40;2.00;;;;;;;;;;4954830;28;20031;-65
2023/08/06 09:39:30;;;;;;;3.83;2.35;;;;;;;;;;4954589;28;20078;-64
2023/08/06 09:42:04;;;;;;;3.38;2.00;;;;;;;;;;4954709;28;20031;-62
2023/08/06 09:44:31;;;;;;;5.82;1.95;;;;;;;;;;4954696;28;20039;-65
2023/08/06 09:46:59;;;;;;;3.17;2.00;;;;;;;;;;4954591;28;20027;-65
2023/08/06 09:49:39;;;;;;;3.35;1.90;;;;;;;;;;4954483;28;20395;-62
2023/08/06 09:52:05;;;;;;;4.82;2.20;;;;;;;;;;4954491;28;20027;-66
2023/08/06 09:54:32;;;;;;;3.67;1.92;;;;;;;;;;4953886;28;20037;-66
2023/08/06 09:56:58;;;;;;;4.00;2.00;;;;;;;;;;4964781;28;20584;-66
2023/08/06 09:59:24;;;;;;;3.70;2.08;;;;;;;;;;4954372;28;20261;-65
2023/08/06 10:01:49;;;;;;;3.42;1.80;;;;;;;;;;4954689;28;20085;-66
2023/08/06 10:04:18;;;;;;;4.15;1.92;;;;;;;;;;4954139;28;20031;-64
2023/08/06 10:06:47;;;;;;;3.97;1.90;;;;;;;;;;4960090;28;20393;-66
2023/08/06 10:09:13;;;;;;;2.53;1.90;;;;;;;;;;4953761;28;20081;-67
2023/08/06 10:11:39;;;;;;;3.75;1.70;;;;;;;;;;4954269;28;20469;-67
2023/08/06 10:14:14;;;;;;;3.28;1.88;;;;;;;;;;4954502;28;20151;-65
2023/08/06 10:16:41;;;;;;;5.70;2.30;;;;;;;;;;4954190;28;20122;-61
2023/08/06 10:19:10;;;;;;;5.05;2.60;;;;;;;;;;4954283;28;20023;-64
2023/08/06 10:21:38;;;;;;;5.13;2.25;;;;;;;;;;4954570;28;20042;-66
2023/08/06 10:24:08;;;;;;;4.32;2.03;;;;;;;;;;4953802;28;20376;-66
2023/08/06 10:26:34;;;;;;;3.40;2.33;;;;;;;;;;4956442;28;20078;-66
2023/08/06 10:28:59;;;;;;;3.38;2.28;;;;;;;;;;4954373;28;20117;-63
2023/08/06 10:31:56;;;;;;;2.33;1.83;;;;;;;;;;4951575;28;20031;-64
2023/08/06 10:34:22;;;;;;;3.67;2.00;;;;;;;;;;4953262;29;20027;-63
2023/08/06 10:36:47;;;;;;;5.28;1.98;;;;;;;;;;4953720;28;20038;-67
2023/08/06 10:39:14;;;;;;;3.67;2.40;;;;;;;;;;4953088;28;20027;-68
2023/08/06 10:41:42;;;;;;;5.05;2.20;;;;;;;;;;4953889;28;20038;-68
2023/08/06 10:44:09;;;;;;;5.30;1.90;;;;;;;;;;4951288;29;20518;-68
2023/08/06 10:46:35;;;;;;;4.43;1.98;;;;;;;;;;4952812;28;20400;-66
2023/08/06 10:49:01;;;;;;;3.28;2.00;;;;;;;;;;4952171;29;20126;-67
2023/08/06 10:51:27;;;;;;;2.90;2.20;;;;;;;;;;4941879;28;20029;-67
2023/08/06 10:53:53;;;;;;;2.40;1.90;;;;;;;;;;4953977;28;20015;-67
2023/08/06 10:56:23;;;;;;;2.85;2.05;;;;;;;;;;4962922;28;20031;-67
2023/08/06 10:58:50;;;;;;;3.22;2.00;;;;;;;;;;4959489;28;20034;-67
2023/08/06 11:01:16;;;;;;;3.72;2.00;;;;;;;;;;4954070;28;20464;-67
2023/08/06 11:03:43;;;;;;;4.65;2.20;;;;;;;;;;4952463;28;20031;-66
2023/08/06 11:06:09;;;;;;;8.05;2.30;;;;;;;;;;4953629;28;20082;-68
2023/08/06 11:08:40;;;;;;;3.92;1.80;;;;;;;;;;4952857;28;20051;-68
2023/08/06 11:11:16;;;;;;;4.03;1.90;;;;;;;;;;4953425;28;20027;-67
2023/08/06 11:13:48;;;;;;;3.35;2.30;;;;;;;;;;4948421;29;20031;-68
2023/08/06 11:16:18;;;;;;;7.57;2.30;;;;;;;;;;4953428;28;20028;-66
2023/08/06 11:18:44;;;;;;;5.37;2.20;;;;;;;;;;4953339;28;20032;-68
2023/08/06 11:21:10;;;;;;;4.20;2.20;;;;;;;;;;4952162;28;20336;-66
2023/08/06 11:23:35;;;;;;;4.95;2.20;;;;;;;;;;4964054;28;20027;-66
2023/08/06 11:26:01;;;;;;;3.40;1.90;;;;;;;;;;4959415;28;20027;-67
2023/08/06 11:28:27;;;;;;;8.55;2.33;;;;;;;;;;4957046;28;20121;-65
2023/08/06 11:30:53;;;;;;;5.30;2.08;;;;;;;;;;4957691;28;20496;-66
2023/08/06 11:33:27;;;;;;;6.22;1.90;;;;;;;;;;4956879;28;20026;-64
2023/08/06 11:35:58;;;;;;;2.70;1.75;;;;;;;;;;4952087;28;20121;-67
2023/08/06 11:38:30;;;;;;;2.38;1.58;;;;;;;;;;4956275;28;20027;-67
2023/08/06 11:40:56;;;;;;;2.70;1.88;;;;;;;;;;4956332;28;20031;-67
2023/08/06 11:43:22;;;;;;;4.43;1.67;;;;;;;;;;4956078;28;20401;-66
2023/08/06 11:45:53;;;;;;;2.42;1.77;;;;;;;;;;4956552;28;20027;-65
2023/08/06 11:48:19;;;;;;;3.30;1.52;;;;;;;;;;4954440;29;20046;-61
2023/08/06 11:50:45;;;;;;;2.63;1.63;;;;;;;;;;4954485;28;20027;-61
2023/08/06 11:53:16;;;;;;;2.80;1.65;;;;;;;;;;4952255;28;20482;-61
2023/08/06 11:55:42;;;;;;;4.13;1.77;;;;;;;;;;4946959;28;20086;-62
2023/08/06 11:58:10;;;;;;;2.58;1.83;;;;;;;;;;4948506;28;20036;-63
2023/08/06 12:00:36;;;;;;;4.50;1.92;;;;;;;;;;4936967;29;20366;-63
2023/08/06 12:03:02;;;;;;;4.85;2.05;;;;;;;;;;4939284;28;20393;-63
2023/08/06 12:05:32;;;;;;;3.38;2.03;;;;;;;;;;4954646;28;20035;-62
2023/08/06 12:07:59;;;;;;;3.45;1.90;;;;;;;;;;4956300;28;20490;-63
2023/08/06 12:10:26;;;;;;;4.45;2.00;;;;;;;;;;4956198;28;20035;-63
2023/08/06 12:12:52;;;;;;;4.47;2.03;;;;;;;;;;4955740;28;20400;-62
2023/08/06 12:15:18;;;;;;;3.38;1.67;;;;;;;;;;4956313;28;20054;-65
2023/08/06 12:17:43;;;;;;;4.55;1.80;;;;;;;;;;4955924;28;20031;-66
2023/08/06 12:20:10;;;;;;;3.13;1.60;;;;;;;;;;4959663;28;20091;-66
2023/08/06 12:22:38;;;;;;;4.20;1.73;;;;;;;;;;4963258;28;20034;-63
2023/08/06 12:25:08;;;;;;;2.80;1.70;;;;;;;;;;4956612;28;20043;-66
2023/08/06 12:27:35;;;;;;;3.15;1.80;;;;;;;;;;4956520;28;20030;-63
2023/08/06 12:30:00;;;;;;;9.35;2.00;;;;;;;;;;4956693;28;20027;-67
2023/08/06 12:32:26;;;;;;;7.72;2.33;;;;;;;;;;4956828;28;20038;-67
2023/08/06 12:34:51;;;;;;;10.25;2.17;;;;;;;;;;4956447;28;20038;-67
2023/08/06 12:37:17;;;;;;;6.38;2.22;;;;;;;;;;4956140;28;20440;-66
2023/08/06 12:39:42;;;;;;;6.30;1.70;;;;;;;;;;4956512;28;20027;-68
2023/08/06 12:42:08;;;;;;;3.63;1.77;;;;;;;;;;4956388;28;20031;-65
2023/08/06 12:44:33;;;;;;;3.25;1.80;;;;;;;;;;4957135;28;20039;-66
2023/08/06 12:46:59;;;;;;;6.72;2.00;;;;;;;;;;4974597;28;20090;-66
2023/08/06 12:49:25;;;;;;;5.13;2.00;;;;;;;;;;4975302;28;20027;-63
2023/08/06 12:51:52;;;;;;;5.03;1.98;;;;;;;;;;4965163;28;20031;-63
2023/08/06 12:54:18;;;;;;;3.25;1.85;;;;;;;;;;4956586;28;20043;-66
2023/08/06 12:56:44;;;;;;;3.45;1.80;;;;;;;;;;4968523;28;20030;-64
2023/08/06 12:59:09;;;;;;;4.78;2.67;;;;;;;;;;4966015;28;20020;-65
2023/08/06 13:01:37;;;;;;;3.88;2.08;;;;;;;;;;4955974;28;20488;-64
2023/08/06 13:04:02;;;;;;;3.47;2.10;;;;;;;;;;4955679;28;20027;-64
2023/08/06 13:06:28;;;;;;;4.63;2.13;;;;;;;;;;4956184;28;20039;-65
2023/08/06 13:08:53;;;;;;;2.78;1.80;;;;;;;;;;4955945;28;20039;-65
2023/08/06 13:11:19;;;;;;;4.90;2.53;;;;;;;;;;4955938;28;20110;-64
2023/08/06 13:13:44;;;;;;;2.92;1.80;;;;;;;;;;4956024;28;20166;-64
2023/08/06 13:16:10;;;;;;;3.70;2.10;;;;;;;;;;4955255;28;20034;-65
2023/08/06 13:18:35;;;;;;;2.60;1.85;;;;;;;;;;4954338;28;20550;-64
2023/08/06 13:21:01;;;;;;;3.65;2.03;;;;;;;;;;4955011;28;20059;-64
2023/08/06 13:23:26;;;;;;;3.63;2.30;;;;;;;;;;4953648;28;20038;-64
2023/08/06 13:25:51;;;;;;;3.97;2.25;;;;;;;;;;4954253;28;20469;-66
2023/08/06 13:28:17;;;;;;;4.15;1.92;;;;;;;;;;4954166;28;20431;-62
2023/08/06 13:30:42;;;;;;;4.65;2.20;;;;;;;;;;4953767;28;20027;-68
2023/08/06 13:33:09;;;;;;;7.30;2.10;;;;;;;;;;4948077;28;20036;-68
2023/08/06 13:35:34;;;;;;;6.95;2.55;;;;;;;;;;4938621;29;20031;-68
2023/08/06 13:38:02;;;;;;;5.30;2.45;;;;;;;;;;4954360;28;20528;-68
2023/08/06 13:40:28;;;;;;;5.35;3.13;;;;;;;;;;4954163;28;20041;-68
2023/08/06 13:42:54;;;;;;;4.30;2.10;;;;;;;;;;4953816;28;20027;-68
2023/08/06 13:45:19;;;;;;;4.85;2.10;;;;;;;;;;4952915;28;20046;-66
2023/08/06 13:47:44;;;;;;;4.43;2.38;;;;;;;;;;4947178;29;20031;-68
2023/08/06 13:50:10;;;;;;;6.30;2.42;;;;;;;;;;4951385;28;20552;-69
2023/08/06 13:52:35;;;;;;;5.78;2.20;;;;;;;;;;4953458;28;20023;-70
2023/08/06 13:55:01;;;;;;;4.72;1.80;;;;;;;;;;4955337;28;20487;-69
2023/08/06 13:57:26;;;;;;;4.75;2.30;;;;;;;;;;4973086;28;20073;-69
2023/08/06 13:59:52;;;;;;;3.53;2.03;;;;;;;;;;4962671;28;20483;-67
2023/08/06 14:02:17;;;;;;;5.25;1.77;;;;;;;;;;4954995;28;20473;-68
2023/08/06 14:04:42;;;;;;;4.97;1.90;;;;;;;;;;4954670;28;20026;-64
2023/08/06 14:07:08;;;;;;;2.92;1.75;;;;;;;;;;4954485;28;20015;-68
2023/08/06 14:09:34;;;;;;;3.97;1.90;;;;;;;;;;4954427;28;20492;-69
2023/08/06 14:12:00;;;;;;;5.20;1.75;;;;;;;;;;4954562;28;20031;-67
2023/08/06 14:14:28;;;;;;;5.22;1.80;;;;;;;;;;4954695;28;20047;-63
2023/08/06 14:16:54;;;;;;;15.10;2.35;;;;;;;;;;4954025;28;20016;-72
2023/08/06 14:19:20;;;;;;;13.57;2.30;;;;;;;;;;4954427;28;20481;-63
2023/08/06 14:21:45;;;;;;;5.88;2.00;;;;;;;;;;4954436;28;20488;-72
2023/08/06 14:24:11;;;;;;;4.53;1.85;;;;;;;;;;4954410;28;20023;-68
2023/08/06 14:26:37;;;;;;;3.00;1.70;;;;;;;;;;4954187;28;20062;-65
2023/08/06 14:29:02;;;;;;;3.00;1.70;;;;;;;;;;4952142;28;20120;-69
2023/08/06 14:31:28;;;;;;;4.85;1.85;;;;;;;;;;4949182;28;20113;-63
2023/08/06 14:33:54;;;;;;;4.15;1.70;;;;;;;;;;4949750;28;20070;-67